sensor_id;sensor_type;location;lat;lon;timestamp;pressure;altitude;pressure_sealevel;temperature;humidity
56671;BME280;42545;50.054;8.306;2022-10-22T00:02:16;99547.25;;;13.79;nan
56671;BME280;42545;50.054;8.306;2022-10-22T00:04:45;99539.28;;;13.79;nan
56671;BME280;42545;50.054;8.306;2022-10-22T00:07:12;99550.81;;;13.80;nan
56671;BME280;42545;50.054;8.306;2022-10-22T00:09:40;99552.56;;;13.79;nan
56671;BME280;42545;50.054;8.306;2022-10-22T00:12:07;99550.81;;;13.78;nan
56671;BME280;42545;50.054;8.306;2022-10-22T00:14:34;99546.38;;;13.80;nan
56671;BME280;42545;50.054;8.306;2022-10-22T00:17:01;99527.81;;;13.79;nan
56671;BME280;42545;50.054;8.306;2022-10-22T00:19:28;99538.44;;;13.76;nan
56671;BME280;42545;50.054;8.306;2022-10-22T00:21:56;99540.19;;;13.75;nan
56671;BME280;42545;50.054;8.306;2022-10-22T00:24:24;99542.84;;;13.77;nan
56671;BME280;42545;50.054;8.306;2022-10-22T00:26:52;99547.28;;;13.76;nan
56671;BME280;42545;50.054;8.306;2022-10-22T00:29:18;99549.03;;;13.76;nan
56671;BME280;42545;50.054;8.306;2022-10-22T00:31:45;99542.84;;;13.74;nan
56671;BME280;42545;50.054;8.306;2022-10-22T00:34:14;99537.56;;;13.75;nan
56671;BME280;42545;50.054;8.306;2022-10-22T00:36:41;99536.69;;;13.75;nan
56671;BME280;42545;50.054;8.306;2022-10-22T00:39:09;99528.72;;;13.73;nan
56671;BME280;42545;50.054;8.306;2022-10-22T00:41:37;99528.72;;;13.72;nan
56671;BME280;42545;50.054;8.306;2022-10-22T00:44:06;99524.31;;;13.72;nan
56671;BME280;42545;50.054;8.306;2022-10-22T00:46:33;99523.44;;;13.70;nan
56671;BME280;42545;50.054;8.306;2022-10-22T00:49:01;99517.25;;;13.68;nan
56671;BME280;42545;50.054;8.306;2022-10-22T00:51:31;99524.34;;;13.68;nan
56671;BME280;42545;50.054;8.306;2022-10-22T00:54:02;99520.81;;;13.64;nan
56671;BME280;42545;50.054;8.306;2022-10-22T00:56:30;99514.63;;;13.65;nan
56671;BME280;42545;50.054;8.306;2022-10-22T00:58:59;99514.66;;;13.63;nan
56671;BME280;42545;50.054;8.306;2022-10-22T01:01:30;99510.22;;;13.65;nan
56671;BME280;42545;50.054;8.306;2022-10-22T01:03:57;99513.75;;;13.63;nan
56671;BME280;42545;50.054;8.306;2022-10-22T01:06:26;99512.88;;;13.61;nan
56671;BME280;42545;50.054;8.306;2022-10-22T01:09:02;99519.09;;;13.58;nan
56671;BME280;42545;50.054;8.306;2022-10-22T01:11:36;99512.00;;;13.54;nan
56671;BME280;42545;50.054;8.306;2022-10-22T01:14:13;99521.78;;;13.46;nan
56671;BME280;42545;50.054;8.306;2022-10-22T01:16:53;99525.34;;;13.40;nan
56671;BME280;42545;50.054;8.306;2022-10-22T01:19:39;99535.94;;;13.37;nan
56671;BME280;42545;50.054;8.306;2022-10-22T01:22:13;99542.13;;;13.33;nan
56671;BME280;42545;50.054;8.306;2022-10-22T01:24:55;99545.66;;;13.29;nan
56671;BME280;42545;50.054;8.306;2022-10-22T01:27:37;99558.00;;;13.30;nan
56671;BME280;42545;50.054;8.306;2022-10-22T01:30:09;99558.00;;;13.30;nan
56671;BME280;42545;50.054;8.306;2022-10-22T01:32:40;99560.66;;;13.30;nan
56671;BME280;42545;50.054;8.306;2022-10-22T01:41:55;99565.97;;;13.33;nan
56671;BME280;42545;50.054;8.306;2022-10-22T01:44:24;99563.31;;;13.38;nan
56671;BME280;42545;50.054;8.306;2022-10-22T01:47:01;99547.41;;;13.39;nan
56671;BME280;42545;50.054;8.306;2022-10-22T01:49:40;99559.78;;;13.40;nan
56671;BME280;42545;50.054;8.306;2022-10-22T01:52:16;99556.25;;;13.40;nan
56671;BME280;42545;50.054;8.306;2022-10-22T01:54:53;99567.72;;;13.40;nan
56671;BME280;42545;50.054;8.306;2022-10-22T01:57:31;99572.16;;;13.38;nan
56671;BME280;42545;50.054;8.306;2022-10-22T02:00:03;99567.72;;;13.37;nan
56671;BME280;42545;50.054;8.306;2022-10-22T02:02:39;99553.63;;;13.38;nan
56671;BME280;42545;50.054;8.306;2022-10-22T02:05:11;99550.97;;;13.40;nan
56671;BME280;42545;50.054;8.306;2022-10-22T02:07:41;99546.53;;;13.40;nan
56671;BME280;42545;50.054;8.306;2022-10-22T02:10:10;99535.94;;;13.39;nan
56671;BME280;42545;50.054;8.306;2022-10-22T02:12:39;99544.75;;;13.41;nan
56671;BME280;42545;50.054;8.306;2022-10-22T02:15:07;99550.94;;;13.41;nan
56671;BME280;42545;50.054;8.306;2022-10-22T02:17:37;99563.31;;;13.42;nan
56671;BME280;42545;50.054;8.306;2022-10-22T02:20:06;99555.34;;;13.39;nan
56671;BME280;42545;50.054;8.306;2022-10-22T02:22:35;99570.34;;;13.45;nan
56671;BME280;42545;50.054;8.306;2022-10-22T02:25:03;99573.00;;;13.46;nan
56671;BME280;42545;50.054;8.306;2022-10-22T02:27:35;99558.00;;;13.45;nan
56671;BME280;42545;50.054;8.306;2022-10-22T02:30:06;99542.09;;;13.41;nan
56671;BME280;42545;50.054;8.306;2022-10-22T02:32:40;99540.38;;;13.40;nan
56671;BME280;42545;50.054;8.306;2022-10-22T02:35:11;99555.34;;;13.45;nan
56671;BME280;42545;50.054;8.306;2022-10-22T02:37:39;99565.97;;;13.45;nan
56671;BME280;42545;50.054;8.306;2022-10-22T02:40:07;99565.97;;;13.45;nan
56671;BME280;42545;50.054;8.306;2022-10-22T02:42:36;99571.25;;;13.47;nan
56671;BME280;42545;50.054;8.306;2022-10-22T02:45:06;99564.19;;;13.43;nan
56671;BME280;42545;50.054;8.306;2022-10-22T02:47:33;99551.84;;;13.43;nan
56671;BME280;42545;50.054;8.306;2022-10-22T02:50:01;99554.44;;;13.45;nan
56671;BME280;42545;50.054;8.306;2022-10-22T02:52:28;99557.13;;;13.40;nan
56671;BME280;42545;50.054;8.306;2022-10-22T02:54:54;99552.72;;;13.42;nan
56671;BME280;42545;50.054;8.306;2022-10-22T02:57:21;99553.59;;;13.44;nan
56671;BME280;42545;50.054;8.306;2022-10-22T02:59:48;99553.59;;;13.44;nan
56671;BME280;42545;50.054;8.306;2022-10-22T03:02:14;99556.22;;;13.43;nan
56671;BME280;42545;50.054;8.306;2022-10-22T03:04:42;99559.78;;;13.42;nan
56671;BME280;42545;50.054;8.306;2022-10-22T03:07:10;99555.34;;;13.38;nan
56671;BME280;42545;50.054;8.306;2022-10-22T03:09:37;99560.66;;;13.41;nan
56671;BME280;42545;50.054;8.306;2022-10-22T03:12:04;99553.59;;;13.43;nan
56671;BME280;42545;50.054;8.306;2022-10-22T03:14:32;99557.13;;;13.43;nan
56671;BME280;42545;50.054;8.306;2022-10-22T03:16:59;99566.84;;;13.41;nan
56671;BME280;42545;50.054;8.306;2022-10-22T03:19:26;99566.84;;;13.41;nan
56671;BME280;42545;50.054;8.306;2022-10-22T03:21:55;99573.91;;;13.42;nan
56671;BME280;42545;50.054;8.306;2022-10-22T03:24:26;99579.22;;;13.42;nan
56671;BME280;42545;50.054;8.306;2022-10-22T03:26:54;99581.00;;;13.42;nan
56671;BME280;42545;50.054;8.306;2022-10-22T03:29:22;99585.38;;;13.41;nan
56671;BME280;42545;50.054;8.306;2022-10-22T03:31:51;99590.72;;;13.40;nan
56671;BME280;42545;50.054;8.306;2022-10-22T03:34:18;99594.25;;;13.42;nan
56671;BME280;42545;50.054;8.306;2022-10-22T03:36:47;99592.47;;;13.39;nan
56671;BME280;42545;50.054;8.306;2022-10-22T03:39:15;99593.38;;;13.40;nan
56671;BME280;42545;50.054;8.306;2022-10-22T03:41:45;99596.88;;;13.39;nan
56671;BME280;42545;50.054;8.306;2022-10-22T03:44:12;99601.28;;;13.43;nan
56671;BME280;42545;50.054;8.306;2022-10-22T03:46:41;99599.53;;;13.43;nan
56671;BME280;42545;50.054;8.306;2022-10-22T03:49:08;99600.41;;;13.42;nan
56671;BME280;42545;50.054;8.306;2022-10-22T03:51:34;99603.94;;;13.41;nan
56671;BME280;42545;50.054;8.306;2022-10-22T03:54:01;99611.00;;;13.42;nan
56671;BME280;42545;50.054;8.306;2022-10-22T03:56:28;99630.44;;;13.41;nan
56671;BME280;42545;50.054;8.306;2022-10-22T03:58:57;99627.78;;;13.43;nan
56671;BME280;42545;50.054;8.306;2022-10-22T04:01:24;99624.25;;;13.42;nan
56671;BME280;42545;50.054;8.306;2022-10-22T04:03:52;99635.72;;;13.43;nan
56671;BME280;42545;50.054;8.306;2022-10-22T04:06:21;99635.72;;;13.41;nan
56671;BME280;42545;50.054;8.306;2022-10-22T04:08:48;99645.47;;;13.42;nan
56671;BME280;42545;50.054;8.306;2022-10-22T04:11:15;99649.88;;;13.40;nan
56671;BME280;42545;50.054;8.306;2022-10-22T04:13:43;99654.31;;;13.38;nan
56671;BME280;42545;50.054;8.306;2022-10-22T04:16:13;99659.59;;;13.37;nan
56671;BME280;42545;50.054;8.306;2022-10-22T04:18:41;99659.59;;;13.38;nan
56671;BME280;42545;50.054;8.306;2022-10-22T04:21:11;99661.34;;;13.38;nan
56671;BME280;42545;50.054;8.306;2022-10-22T04:23:38;99666.66;;;13.38;nan
56671;BME280;42545;50.054;8.306;2022-10-22T04:26:06;99670.19;;;13.41;nan
56671;BME280;42545;50.054;8.306;2022-10-22T04:28:33;99669.31;;;13.39;nan
56671;BME280;42545;50.054;8.306;2022-10-22T04:31:06;99672.88;;;13.38;nan
56671;BME280;42545;50.054;8.306;2022-10-22T04:33:35;99688.75;;;13.38;nan
56671;BME280;42545;50.054;8.306;2022-10-22T04:36:05;99684.34;;;13.37;nan
56671;BME280;42545;50.054;8.306;2022-10-22T04:38:32;99687.88;;;13.36;nan
56671;BME280;42545;50.054;8.306;2022-10-22T04:41:07;99695.84;;;13.35;nan
56671;BME280;42545;50.054;8.306;2022-10-22T04:43:34;99686.97;;;13.34;nan
56671;BME280;42545;50.054;8.306;2022-10-22T04:46:01;99683.44;;;13.32;nan
56671;BME280;42545;50.054;8.306;2022-10-22T04:48:27;99685.22;;;13.32;nan
56671;BME280;42545;50.054;8.306;2022-10-22T04:50:57;99691.41;;;13.32;nan
56671;BME280;42545;50.054;8.306;2022-10-22T04:53:25;99687.88;;;13.32;nan
56671;BME280;42545;50.054;8.306;2022-10-22T04:55:52;99681.69;;;13.31;nan
56671;BME280;42545;50.054;8.306;2022-10-22T04:58:18;99692.25;;;13.30;nan
56671;BME280;42545;50.054;8.306;2022-10-22T05:00:46;99698.44;;;13.28;nan
56671;BME280;42545;50.054;8.306;2022-10-22T05:03:13;99693.16;;;13.25;nan
56671;BME280;42545;50.054;8.306;2022-10-22T05:05:39;99694.03;;;13.26;nan
56671;BME280;42545;50.054;8.306;2022-10-22T05:08:08;99690.50;;;13.24;nan
56671;BME280;42545;50.054;8.306;2022-10-22T05:10:35;99689.63;;;13.22;nan
56671;BME280;42545;50.054;8.306;2022-10-22T05:13:01;99695.78;;;13.18;nan
56671;BME280;42545;50.054;8.306;2022-10-22T05:15:28;99690.47;;;13.19;nan
56671;BME280;42545;50.054;8.306;2022-10-22T05:17:54;99699.34;;;13.20;nan
56671;BME280;42545;50.054;8.306;2022-10-22T05:20:21;99702.00;;;13.20;nan
56671;BME280;42545;50.054;8.306;2022-10-22T05:22:48;99701.97;;;13.18;nan
56671;BME280;42545;50.054;8.306;2022-10-22T05:25:17;99710.81;;;13.19;nan
56671;BME280;42545;50.054;8.306;2022-10-22T05:27:47;99705.50;;;13.19;nan
56671;BME280;42545;50.054;8.306;2022-10-22T05:30:14;99708.16;;;13.19;nan
56671;BME280;42545;50.054;8.306;2022-10-22T05:32:42;99707.28;;;13.18;nan
56671;BME280;42545;50.054;8.306;2022-10-22T05:35:09;99708.16;;;13.19;nan
56671;BME280;42545;50.054;8.306;2022-10-22T05:37:36;99716.97;;;13.18;nan
56671;BME280;42545;50.054;8.306;2022-10-22T05:40:04;99716.97;;;13.18;nan
56671;BME280;42545;50.054;8.306;2022-10-22T05:42:33;99725.81;;;13.18;nan
56671;BME280;42545;50.054;8.306;2022-10-22T05:45:00;99715.22;;;13.14;nan
56671;BME280;42545;50.054;8.306;2022-10-22T05:47:28;99719.66;;;13.16;nan
56671;BME280;42545;50.054;8.306;2022-10-22T05:49:55;99723.16;;;13.17;nan
56671;BME280;42545;50.054;8.306;2022-10-22T05:52:22;99726.72;;;13.14;nan
56671;BME280;42545;50.054;8.306;2022-10-22T05:54:49;99731.09;;;13.14;nan
56671;BME280;42545;50.054;8.306;2022-10-22T05:57:16;99720.53;;;13.11;nan
56671;BME280;42545;50.054;8.306;2022-10-22T05:59:45;99713.44;;;13.05;nan
56671;BME280;42545;50.054;8.306;2022-10-22T06:02:11;99724.06;;;13.03;nan
56671;BME280;42545;50.054;8.306;2022-10-22T06:04:38;99725.81;;;12.97;nan
56671;BME280;42545;50.054;8.306;2022-10-22T06:07:05;99724.03;;;12.91;nan
56671;BME280;42545;50.054;8.306;2022-10-22T06:09:35;99724.91;;;12.85;nan
56671;BME280;42545;50.054;8.306;2022-10-22T06:12:04;99726.66;;;12.79;nan
56671;BME280;42545;50.054;8.306;2022-10-22T06:14:33;99729.28;;;12.73;nan
56671;BME280;42545;50.054;8.306;2022-10-22T06:17:02;99731.91;;;12.66;nan
56671;BME280;42545;50.054;8.306;2022-10-22T06:19:28;99731.91;;;12.60;nan
56671;BME280;42545;50.054;8.306;2022-10-22T06:21:55;99742.47;;;12.57;nan
56671;BME280;42545;50.054;8.306;2022-10-22T06:24:22;99745.97;;;12.50;nan
56671;BME280;42545;50.054;8.306;2022-10-22T06:26:50;99759.19;;;12.50;nan
56671;BME280;42545;50.054;8.306;2022-10-22T06:29:18;99759.19;;;12.50;nan
56671;BME280;42545;50.054;8.306;2022-10-22T06:31:45;99769.81;;;12.48;nan
56671;BME280;42545;50.054;8.306;2022-10-22T06:34:14;99779.50;;;12.51;nan
56671;BME280;42545;50.054;8.306;2022-10-22T06:36:43;99783.91;;;12.49;nan
56671;BME280;42545;50.054;8.306;2022-10-22T06:39:11;99789.22;;;12.49;nan
56671;BME280;42545;50.054;8.306;2022-10-22T06:41:39;99799.78;;;12.49;nan
56671;BME280;42545;50.054;8.306;2022-10-22T06:44:06;99799.81;;;12.50;nan
56671;BME280;42545;50.054;8.306;2022-10-22T06:46:33;99798.91;;;12.53;nan
56671;BME280;42545;50.054;8.306;2022-10-22T06:49:01;99807.72;;;12.54;nan
56671;BME280;42545;50.054;8.306;2022-10-22T06:51:31;99801.59;;;12.56;nan
56671;BME280;42545;50.054;8.306;2022-10-22T06:53:58;99807.75;;;12.55;nan
56671;BME280;42545;50.054;8.306;2022-10-22T06:56:27;99818.34;;;12.57;nan
56671;BME280;42545;50.054;8.306;2022-10-22T06:58:55;99825.41;;;12.59;nan
56671;BME280;42545;50.054;8.306;2022-10-22T07:01:24;99828.97;;;12.61;nan
56671;BME280;42545;50.054;8.306;2022-10-22T07:03:52;99828.97;;;12.66;nan
56671;BME280;42545;50.054;8.306;2022-10-22T07:06:20;99828.97;;;12.67;nan
56671;BME280;42545;50.054;8.306;2022-10-22T07:08:49;99833.38;;;12.70;nan
56671;BME280;42545;50.054;8.306;2022-10-22T07:11:21;99831.63;;;12.72;nan
56671;BME280;42545;50.054;8.306;2022-10-22T07:13:49;99834.31;;;12.75;nan
56671;BME280;42545;50.054;8.306;2022-10-22T07:16:17;99835.19;;;12.77;nan
56671;BME280;42545;50.054;8.306;2022-10-22T07:18:44;99842.28;;;12.80;nan
56671;BME280;42545;50.054;8.306;2022-10-22T07:21:13;99843.19;;;12.83;nan
56671;BME280;42545;50.054;8.306;2022-10-22T07:23:41;99844.91;;;12.83;nan
56671;BME280;42545;50.054;8.306;2022-10-22T07:26:11;99859.97;;;12.87;nan
56671;BME280;42545;50.054;8.306;2022-10-22T07:28:39;99872.31;;;12.88;nan
56671;BME280;42545;50.054;8.306;2022-10-22T07:31:07;99869.69;;;12.94;nan
56671;BME280;42545;50.054;8.306;2022-10-22T07:33:35;99870.56;;;12.99;nan
56671;BME280;42545;50.054;8.306;2022-10-22T07:36:05;99865.28;;;13.02;nan
56671;BME280;42545;50.054;8.306;2022-10-22T07:38:32;99872.38;;;13.08;nan
56671;BME280;42545;50.054;8.306;2022-10-22T07:41:00;99881.22;;;13.12;nan
56671;BME280;42545;50.054;8.306;2022-10-22T07:43:29;99883.00;;;13.16;nan
56671;BME280;42545;50.054;8.306;2022-10-22T07:45:56;99892.72;;;13.17;nan
56671;BME280;42545;50.054;8.306;2022-10-22T07:48:24;99889.16;;;13.12;nan
56671;BME280;42545;50.054;8.306;2022-10-22T07:50:51;99882.09;;;13.09;nan
56671;BME280;42545;50.054;8.306;2022-10-22T07:53:18;99892.69;;;13.09;nan
56671;BME280;42545;50.054;8.306;2022-10-22T07:55:47;99887.41;;;13.09;nan
56671;BME280;42545;50.054;8.306;2022-10-22T07:58:14;99892.69;;;13.12;nan
56671;BME280;42545;50.054;8.306;2022-10-22T08:00:43;99896.22;;;13.11;nan
56671;BME280;42545;50.054;8.306;2022-10-22T08:03:11;99892.69;;;13.09;nan
56671;BME280;42545;50.054;8.306;2022-10-22T08:05:39;99898.00;;;13.07;nan
56671;BME280;42545;50.054;8.306;2022-10-22T08:08:08;99889.16;;;13.07;nan
56671;BME280;42545;50.054;8.306;2022-10-22T08:10:35;99897.09;;;13.12;nan
56671;BME280;42545;50.054;8.306;2022-10-22T08:13:04;99898.88;;;13.16;nan
56671;BME280;42545;50.054;8.306;2022-10-22T08:15:32;99909.50;;;13.17;nan
56671;BME280;42545;50.054;8.306;2022-10-22T08:18:00;99913.03;;;13.22;nan
56671;BME280;42545;50.054;8.306;2022-10-22T08:20:28;99906.88;;;13.23;nan
56671;BME280;42545;50.054;8.306;2022-10-22T08:22:54;99911.28;;;13.26;nan
56671;BME280;42545;50.054;8.306;2022-10-22T08:25:22;99916.59;;;13.27;nan
56671;BME280;42545;50.054;8.306;2022-10-22T08:27:49;99919.25;;;13.26;nan
56671;BME280;42545;50.054;8.306;2022-10-22T08:30:16;99928.13;;;13.37;nan
56671;BME280;42545;50.054;8.306;2022-10-22T08:32:43;99927.28;;;13.38;nan
56671;BME280;42545;50.054;8.306;2022-10-22T08:35:12;99930.81;;;13.43;nan
56671;BME280;42545;50.054;8.306;2022-10-22T08:37:39;99937.00;;;13.42;nan
56671;BME280;42545;50.054;8.306;2022-10-22T08:40:07;99936.97;;;13.39;nan
56671;BME280;42545;50.054;8.306;2022-10-22T08:43:06;99936.97;;;13.33;nan
56671;BME280;42545;50.054;8.306;2022-10-22T08:45:40;99932.56;;;13.35;nan
56671;BME280;42545;50.054;8.306;2022-10-22T08:48:23;99937.88;;;13.43;nan
56671;BME280;42545;50.054;8.306;2022-10-22T08:50:58;99944.06;;;13.43;nan
56671;BME280;42545;50.054;8.306;2022-10-22T08:53:29;99948.47;;;13.44;nan
56671;BME280;42545;50.054;8.306;2022-10-22T08:56:00;99951.16;;;13.57;nan
56671;BME280;42545;50.054;8.306;2022-10-22T08:58:33;99946.78;;;13.63;nan
56671;BME280;42545;50.054;8.306;2022-10-22T09:01:04;99954.72;;;13.65;nan
56671;BME280;42545;50.054;8.306;2022-10-22T09:03:43;99952.97;;;13.65;nan
56671;BME280;42545;50.054;8.306;2022-10-22T09:06:17;99950.34;;;13.76;nan
56671;BME280;42545;50.054;8.306;2022-10-22T09:08:46;99948.53;;;13.68;nan
56671;BME280;42545;50.054;8.306;2022-10-22T09:11:18;99946.81;;;13.82;nan
56671;BME280;42545;50.054;8.306;2022-10-22T09:13:48;99957.44;;;13.99;nan
56671;BME280;42545;50.054;8.306;2022-10-22T09:16:18;99958.31;;;14.09;nan
56671;BME280;42545;50.054;8.306;2022-10-22T09:18:52;99950.34;;;14.19;nan
56671;BME280;42545;50.054;8.306;2022-10-22T09:21:38;99951.25;;;14.15;nan
56671;BME280;42545;50.054;8.306;2022-10-22T09:24:11;99949.47;;;14.17;nan
56671;BME280;42545;50.054;8.306;2022-10-22T09:26:40;99953.00;;;14.30;nan
56671;BME280;42545;50.054;8.306;2022-10-22T09:29:13;99964.50;;;14.37;nan
56671;BME280;42545;50.054;8.306;2022-10-22T09:31:43;99957.44;;;14.40;nan
56671;BME280;42545;50.054;8.306;2022-10-22T09:34:13;99953.88;;;14.54;nan
56671;BME280;42545;50.054;8.306;2022-10-22T09:36:41;99953.84;;;14.49;nan
56671;BME280;42545;50.054;8.306;2022-10-22T09:39:21;99954.75;;;14.56;nan
56671;BME280;42545;50.054;8.306;2022-10-22T09:41:49;99953.00;;;14.61;nan
56671;BME280;42545;50.054;8.306;2022-10-22T09:44:19;99949.47;;;14.57;nan
56671;BME280;42545;50.054;8.306;2022-10-22T09:46:47;99957.44;;;14.59;nan
56671;BME280;42545;50.054;8.306;2022-10-22T09:49:15;99952.97;;;14.56;nan
56671;BME280;42545;50.054;8.306;2022-10-22T09:51:49;99949.47;;;14.60;nan
56671;BME280;42545;50.054;8.306;2022-10-22T09:54:18;99951.22;;;14.75;nan
56671;BME280;42545;50.054;8.306;2022-10-22T09:56:50;99952.03;;;15.01;nan
56671;BME280;42545;50.054;8.306;2022-10-22T09:59:25;99947.50;;;15.24;nan
56671;BME280;42545;50.054;8.306;2022-10-22T10:01:58;99959.81;;;15.45;nan
56671;BME280;42545;50.054;8.306;2022-10-22T10:04:25;99962.56;;;15.24;nan
56671;BME280;42545;50.054;8.306;2022-10-22T10:06:54;99962.63;;;15.08;nan
56671;BME280;42545;50.054;8.306;2022-10-22T10:09:24;99975.00;;;15.09;nan
56671;BME280;42545;50.054;8.306;2022-10-22T10:11:56;99970.63;;;15.01;nan
56671;BME280;42545;50.054;8.306;2022-10-22T10:14:33;99976.78;;;15.09;nan
56671;BME280;42545;50.054;8.306;2022-10-22T10:17:06;99975.91;;;15.10;nan
56671;BME280;42545;50.054;8.306;2022-10-22T10:19:43;99975.91;;;15.08;nan
56671;BME280;42545;50.054;8.306;2022-10-22T10:22:29;99982.09;;;15.06;nan
56671;BME280;42545;50.054;8.306;2022-10-22T10:25:18;99979.53;;;14.84;nan
56671;BME280;42545;50.054;8.306;2022-10-22T10:27:52;99984.84;;;14.69;nan
56671;BME280;42545;50.054;8.306;2022-10-22T10:30:23;99987.53;;;14.63;nan
56671;BME280;42545;50.054;8.306;2022-10-22T10:33:07;99991.03;;;14.51;nan
56671;BME280;42545;50.054;8.306;2022-10-22T10:35:45;99996.38;;;14.37;nan
56671;BME280;42545;50.054;8.306;2022-10-22T10:38:30;99988.41;;;14.38;nan
56671;BME280;42545;50.054;8.306;2022-10-22T10:41:06;99994.59;;;14.39;nan
56671;BME280;42545;50.054;8.306;2022-10-22T10:43:42;99991.03;;;14.40;nan
56671;BME280;42545;50.054;8.306;2022-10-22T10:46:18;99988.41;;;14.46;nan
56671;BME280;42545;50.054;8.306;2022-10-22T10:48:54;99982.19;;;14.52;nan
56671;BME280;42545;50.054;8.306;2022-10-22T10:51:32;99979.53;;;14.56;nan
56671;BME280;42545;50.054;8.306;2022-10-22T10:54:17;99975.13;;;14.57;nan
56671;BME280;42545;50.054;8.306;2022-10-22T10:56:50;99981.28;;;14.54;nan
56671;BME280;42545;50.054;8.306;2022-10-22T10:59:30;99978.63;;;14.54;nan
56671;BME280;42545;50.054;8.306;2022-10-22T11:02:29;99973.34;;;14.65;nan
56671;BME280;42545;50.054;8.306;2022-10-22T11:05:06;99979.50;;;14.87;nan
56671;BME280;42545;50.054;8.306;2022-10-22T11:07:40;99968.88;;;14.92;nan
56671;BME280;42545;50.054;8.306;2022-10-22T11:10:20;99975.91;;;15.04;nan
56671;BME280;42545;50.054;8.306;2022-10-22T11:12:50;99972.38;;;15.06;nan
56671;BME280;42545;50.054;8.306;2022-10-22T11:15:24;99973.25;;;15.10;nan
56671;BME280;42545;50.054;8.306;2022-10-22T11:17:58;99967.88;;;15.22;nan
56671;BME280;42545;50.054;8.306;2022-10-22T11:20:42;99963.47;;;15.24;nan
56671;BME280;42545;50.054;8.306;2022-10-22T11:23:14;99969.63;;;15.29;nan
56671;BME280;42545;50.054;8.306;2022-10-22T11:25:45;99975.84;;;15.30;nan
56671;BME280;42545;50.054;8.306;2022-10-22T11:28:20;99963.38;;;15.44;nan
56671;BME280;42545;50.054;8.306;2022-10-22T11:30:58;99973.91;;;15.60;nan
56671;BME280;42545;50.054;8.306;2022-10-22T11:33:32;99968.53;;;15.72;nan
56671;BME280;42545;50.054;8.306;2022-10-22T11:36:04;99970.25;;;15.87;nan
56671;BME280;42545;50.054;8.306;2022-10-22T11:38:32;99976.41;;;15.92;nan
56671;BME280;42545;50.054;8.306;2022-10-22T11:41:04;99971.84;;;16.08;nan
56671;BME280;42545;50.054;8.306;2022-10-22T11:43:35;99965.50;;;16.24;nan
56671;BME280;42545;50.054;8.306;2022-10-22T11:46:39;99969.06;;;16.26;nan
56671;BME280;42545;50.054;8.306;2022-10-22T11:49:17;99963.53;;;16.51;nan
56671;BME280;42545;50.054;8.306;2022-10-22T11:51:46;99955.44;;;16.59;nan
56671;BME280;42545;50.054;8.306;2022-10-22T11:54:30;99960.72;;;16.65;nan
56671;BME280;42545;50.054;8.306;2022-10-22T11:57:17;99961.63;;;16.62;nan
56671;BME280;42545;50.054;8.306;2022-10-22T11:59:48;99957.13;;;16.69;nan
56671;BME280;42545;50.054;8.306;2022-10-22T12:02:36;99960.63;;;16.74;nan
56671;BME280;42545;50.054;8.306;2022-10-22T12:05:32;99957.00;;;16.81;nan
56671;BME280;42545;50.054;8.306;2022-10-22T12:08:14;99951.66;;;16.86;nan
56671;BME280;42545;50.054;8.306;2022-10-22T12:10:57;99948.94;;;16.92;nan
56671;BME280;42545;50.054;8.306;2022-10-22T12:13:29;99940.84;;;17.01;nan
56671;BME280;42545;50.054;8.306;2022-10-22T12:16:00;99942.53;;;17.08;nan
56671;BME280;42545;50.054;8.306;2022-10-22T12:18:32;99944.19;;;17.16;nan
56671;BME280;42545;50.054;8.306;2022-10-22T12:21:00;99943.16;;;17.29;nan
56671;BME280;42545;50.054;8.306;2022-10-22T12:23:30;99941.13;;;17.46;nan
56671;BME280;42545;50.054;8.306;2022-10-22T12:25:57;99940.81;;;17.70;nan
56671;BME280;42545;50.054;8.306;2022-10-22T12:28:24;99936.06;;;17.90;nan
56671;BME280;42545;50.054;8.306;2022-10-22T12:30:52;99935.75;;;18.12;nan
56671;BME280;42545;50.054;8.306;2022-10-22T12:33:21;99933.91;;;18.14;nan
56671;BME280;42545;50.054;8.306;2022-10-22T12:35:50;99933.88;;;18.17;nan
56671;BME280;42545;50.054;8.306;2022-10-22T12:38:23;99937.56;;;18.10;nan
56671;BME280;42545;50.054;8.306;2022-10-22T12:40:50;99934.09;;;18.03;nan
56671;BME280;42545;50.054;8.306;2022-10-22T12:43:23;99940.34;;;18.02;nan
56671;BME280;42545;50.054;8.306;2022-10-22T12:45:53;99935.19;;;17.91;nan
56671;BME280;42545;50.054;8.306;2022-10-22T12:48:21;99942.09;;;18.03;nan
56671;BME280;42545;50.054;8.306;2022-10-22T12:50:51;99923.19;;;18.18;nan
56671;BME280;42545;50.054;8.306;2022-10-22T12:53:21;99930.09;;;18.29;nan
56671;BME280;42545;50.054;8.306;2022-10-22T12:55:52;99930.09;;;18.30;nan
56671;BME280;42545;50.054;8.306;2022-10-22T12:58:24;99931.94;;;18.25;nan
56671;BME280;42545;50.054;8.306;2022-10-22T13:00:55;99937.44;;;18.17;nan
56671;BME280;42545;50.054;8.306;2022-10-22T13:03:28;99935.69;;;18.15;nan
56671;BME280;42545;50.054;8.306;2022-10-22T13:05:56;99941.09;;;18.10;nan
56671;BME280;42545;50.054;8.306;2022-10-22T13:08:26;99942.94;;;18.06;nan
56671;BME280;42545;50.054;8.306;2022-10-22T13:10:54;99937.69;;;18.02;nan
56671;BME280;42545;50.054;8.306;2022-10-22T13:13:32;99940.38;;;18.00;nan
56671;BME280;42545;50.054;8.306;2022-10-22T13:16:17;99935.06;;;17.99;nan
56671;BME280;42545;50.054;8.306;2022-10-22T13:18:45;99941.28;;;17.99;nan
56671;BME280;42545;50.054;8.306;2022-10-22T13:21:26;99944.00;;;17.96;nan
56671;BME280;42545;50.054;8.306;2022-10-22T13:23:56;99937.75;;;17.97;nan
56671;BME280;42545;50.054;8.306;2022-10-22T13:26:29;99932.44;;;17.96;nan
56671;BME280;42545;50.054;8.306;2022-10-22T13:28:58;99934.22;;;17.95;nan
56671;BME280;42545;50.054;8.306;2022-10-22T13:31:30;99947.56;;;17.95;nan
56671;BME280;42545;50.054;8.306;2022-10-22T13:33:59;99937.84;;;17.91;nan
56671;BME280;42545;50.054;8.306;2022-10-22T13:36:27;99943.25;;;17.85;nan
56671;BME280;42545;50.054;8.306;2022-10-22T13:38:56;99937.09;;;17.80;nan
56671;BME280;42545;50.054;8.306;2022-10-22T13:41:25;99932.69;;;17.76;nan
56671;BME280;42545;50.054;8.306;2022-10-22T13:43:53;99933.69;;;17.70;nan
56671;BME280;42545;50.054;8.306;2022-10-22T13:46:21;99940.81;;;17.68;nan
56671;BME280;42545;50.054;8.306;2022-10-22T13:48:52;99940.84;;;17.66;nan